Time;durP1;ratioP1;P1;durP2;ratioP2;P2;SDS_P1;SDS_P2;PMS_P1;PMS_P2;Temp;Humidity;BMP_temperature;BMP_pressure;BME280_temperature;BME280_humidity;BME280_pressure;Samples;Min_cycle;Max_cycle;Signal;HPM_P1;HPM_P2
2023/06/14 00:02:08;;;;;;;;;;;;;;;21.09;72.10;96678.36;624810;227;62915;-60
2023/06/14 00:04:38;;;;;;;;;;;;;;;21.09;72.11;96675.69;624777;227;66905;-60
2023/06/14 00:07:08;;;;;;;;;;;;;;;21.09;72.11;96686.37;624853;227;64686;-60
2023/06/14 00:09:35;;;;;;;;;;;;;;;21.09;72.10;96675.69;624805;227;63123;-60
2023/06/14 00:12:03;;;;;;;;;;;;;;;21.09;72.08;96675.69;624828;227;64596;-60
2023/06/14 00:14:31;;;;;;;;;;;;;;;21.08;72.06;96674.89;625866;226;64675;-60
2023/06/14 00:16:58;;;;;;;;;;;;;;;21.09;72.07;96673.02;625935;226;63799;-60
2023/06/14 00:19:26;;;;;;;;;;;;;;;21.09;72.06;96671.17;626023;226;66728;-60
2023/06/14 00:21:53;;;;;;;;;;;;;;;21.08;72.09;96669.55;626003;226;66256;-60
2023/06/14 00:24:21;;;;;;;;;;;;;;;21.08;72.10;96672.23;625978;226;65320;-60
2023/06/14 00:26:48;;;;;;;;;;;;;;;21.09;72.10;96673.02;625965;226;64403;-60
2023/06/14 00:29:16;;;;;;;;;;;;;;;21.08;72.08;96666.88;625976;226;64296;-60
2023/06/14 00:31:43;;;;;;;;;;;;;;;21.08;72.08;96668.77;626004;226;62964;-60
2023/06/14 00:34:11;;;;;;;;;;;;;;;21.08;72.09;96664.21;625967;226;66627;-60
2023/06/14 00:36:40;;;;;;;;;;;;;;;21.07;72.08;96659.95;626017;225;44140;-61
2023/06/14 00:39:07;;;;;;;;;;;;;;;21.08;72.07;96663.42;625975;226;62740;-61
2023/06/14 00:41:36;;;;;;;;;;;;;;;21.08;72.06;96660.75;625972;226;66546;-61
2023/06/14 00:44:03;;;;;;;;;;;;;;;21.08;72.10;96658.87;625931;226;64781;-61
2023/06/14 00:46:31;;;;;;;;;;;;;;;21.09;72.10;96662.33;626031;226;65038;-61
2023/06/14 00:49:00;;;;;;;;;;;;;;;21.08;72.07;96658.87;625946;226;67532;-61
2023/06/14 00:51:27;;;;;;;;;;;;;;;21.08;72.06;96658.08;625967;226;66769;-61
2023/06/14 00:53:55;;;;;;;;;;;;;;;21.08;72.08;96666.09;625903;226;65640;-61
2023/06/14 00:56:23;;;;;;;;;;;;;;;21.07;72.08;96651.94;625950;226;67037;-61
2023/06/14 00:58:51;;;;;;;;;;;;;;;21.06;72.09;96661.83;625969;226;68173;-61
2023/06/14 01:01:19;;;;;;;;;;;;;;;21.07;72.04;96657.28;625951;226;62534;-61
2023/06/14 01:03:46;;;;;;;;;;;;;;;21.08;72.04;96652.73;625962;226;66925;-61
2023/06/14 01:06:26;;;;;;;;;;;;;;;21.06;72.05;96650.33;625944;226;66846;-61
2023/06/14 01:08:55;;;;;;;;;;;;;;;21.06;72.08;96643.13;625839;226;65047;-60
2023/06/14 01:11:27;;;;;;;;;;;;;;;21.06;72.09;96635.12;625313;226;67728;-61
2023/06/14 01:13:56;;;;;;;;;;;;;;;21.06;72.09;96637.79;625948;226;64734;-62
2023/06/14 01:16:24;;;;;;;;;;;;;;;21.06;72.11;96634.30;625852;226;62715;-62
2023/06/14 01:18:56;;;;;;;;;;;;;;;21.06;72.11;96635.12;625952;226;66906;-62
2023/06/14 01:21:23;;;;;;;;;;;;;;;21.06;72.13;96627.10;625908;226;66607;-62
2023/06/14 01:23:52;;;;;;;;;;;;;;;21.06;72.11;96618.27;625928;226;62678;-62
2023/06/14 01:26:21;;;;;;;;;;;;;;;21.06;72.10;96623.61;625999;226;65555;-62
2023/06/14 01:28:48;;;;;;;;;;;;;;;21.05;72.12;96617.47;625919;226;64505;-62
2023/06/14 01:31:21;;;;;;;;;;;;;;;21.07;72.11;96619.88;625961;226;63008;-62
2023/06/14 01:33:50;;;;;;;;;;;;;;;21.06;72.10;96619.09;625956;226;66629;-61
2023/06/14 01:36:19;;;;;;;;;;;;;;;21.06;72.09;96621.76;625923;226;67267;-61
2023/06/14 01:38:49;;;;;;;;;;;;;;;21.05;72.09;96625.48;625984;226;65034;-62
2023/06/14 01:41:18;;;;;;;;;;;;;;;21.06;72.11;96624.43;625962;226;64770;-60
2023/06/14 01:43:46;;;;;;;;;;;;;;;21.06;72.08;96619.09;625891;226;64883;-60
2023/06/14 01:46:15;;;;;;;;;;;;;;;21.06;72.05;96624.43;625965;226;64814;-60
2023/06/14 01:48:44;;;;;;;;;;;;;;;21.06;72.08;96624.43;625916;226;67809;-60
2023/06/14 01:51:11;;;;;;;;;;;;;;;21.06;72.08;96624.43;625943;226;66721;-60
2023/06/14 01:53:38;;;;;;;;;;;;;;;21.05;72.11;96628.16;626002;226;64706;-60
2023/06/14 01:56:07;;;;;;;;;;;;;;;21.05;72.08;96617.47;625957;226;66855;-60
2023/06/14 01:58:35;;;;;;;;;;;;;;;21.04;72.07;96618.56;625942;226;65037;-61
2023/06/14 02:01:03;;;;;;;;;;;;;;;21.04;72.09;96623.91;625987;226;65015;-60
2023/06/14 02:03:30;;;;;;;;;;;;;;;21.04;72.08;96631.92;625911;226;67529;-60
2023/06/14 02:05:58;;;;;;;;;;;;;;;21.05;72.09;96625.48;626036;226;65448;-61
2023/06/14 02:08:25;;;;;;;;;;;;;;;21.05;72.10;96638.05;625915;226;65797;-60
2023/06/14 02:10:53;;;;;;;;;;;;;;;21.04;72.08;96645.28;625937;226;64813;-60
2023/06/14 02:13:22;;;;;;;;;;;;;;;21.05;72.10;96638.84;625895;226;67194;-59
2023/06/14 02:15:54;;;;;;;;;;;;;;;21.06;72.09;96653.00;625903;226;62522;-60
2023/06/14 02:18:22;;;;;;;;;;;;;;;21.05;72.07;96640.73;625981;226;67367;-60
2023/06/14 02:20:49;;;;;;;;;;;;;;;21.05;72.08;96649.53;625935;226;67549;-60
2023/06/14 02:23:18;;;;;;;;;;;;;;;21.05;72.10;96657.55;625934;226;65538;-60
2023/06/14 02:25:45;;;;;;;;;;;;;;;21.05;72.10;96654.09;625933;226;66731;-60
2023/06/14 02:28:13;;;;;;;;;;;;;;;21.03;72.09;96651.71;625894;226;66643;-60
2023/06/14 02:30:41;;;;;;;;;;;;;;;21.04;72.07;96663.98;625982;226;64851;-60
2023/06/14 02:33:12;;;;;;;;;;;;;;;21.05;72.08;96656.76;625967;226;67507;-60
2023/06/14 02:35:37;;;;;;;;;;;;;;;21.05;72.08;96659.43;625893;225;66675;-60
2023/06/14 02:38:05;;;;;;;;;;;;;;;21.05;72.06;96654.09;625913;226;65035;-60
2023/06/14 02:40:32;;;;;;;;;;;;;;;21.04;72.08;96653.30;625928;226;66712;-60
2023/06/14 02:43:00;;;;;;;;;;;;;;;21.04;72.07;96655.97;625923;226;66824;-60
2023/06/14 02:45:27;;;;;;;;;;;;;;;21.05;72.08;96670.11;625979;226;66077;-60
2023/06/14 02:47:55;;;;;;;;;;;;;;;21.04;72.07;96668.53;625916;226;66892;-60
2023/06/14 02:50:23;;;;;;;;;;;;;;;21.04;72.08;96673.88;625995;226;67208;-60
2023/06/14 02:52:52;;;;;;;;;;;;;;;21.04;72.04;96677.34;625980;226;62728;-60
2023/06/14 02:55:20;;;;;;;;;;;;;;;21.04;72.04;96679.22;625931;226;64259;-60
2023/06/14 02:57:48;;;;;;;;;;;;;;;21.04;72.05;96676.55;625992;226;65168;-60
2023/06/14 03:00:16;;;;;;;;;;;;;;;21.04;72.06;96680.02;625957;226;65641;-60
2023/06/14 03:02:44;;;;;;;;;;;;;;;21.03;72.06;96683.77;625968;226;64795;-60
2023/06/14 03:05:12;;;;;;;;;;;;;;;21.04;72.04;96679.22;625936;226;67164;-60
2023/06/14 03:07:40;;;;;;;;;;;;;;;21.04;72.05;96680.02;625985;226;64972;-61
2023/06/14 03:10:09;;;;;;;;;;;;;;;21.03;72.05;96689.11;625985;226;64713;-62
2023/06/14 03:12:37;;;;;;;;;;;;;;;21.04;72.07;96685.36;625744;226;66935;-62
2023/06/14 03:15:05;;;;;;;;;;;;;;;21.03;72.06;96689.11;624859;227;62506;-62
2023/06/14 03:17:38;;;;;;;;;;;;;;;21.04;72.04;96692.58;624854;226;43773;-62
2023/06/14 03:20:05;;;;;;;;;;;;;;;21.03;72.04;96698.98;623306;227;67200;-62
2023/06/14 03:22:36;;;;;;;;;;;;;;;21.04;72.05;96706.73;624753;227;62978;-62
2023/06/14 03:25:04;;;;;;;;;;;;;;;21.03;72.05;96702.47;624575;227;64785;-61
2023/06/14 03:27:33;;;;;;;;;;;;;;;21.02;72.04;96698.19;624820;227;64562;-60
2023/06/14 03:30:01;;;;;;;;;;;;;;;21.03;72.05;96697.12;624745;227;65132;-61
2023/06/14 03:32:33;;;;;;;;;;;;;;;21.03;72.00;96706.99;624822;227;66963;-60
2023/06/14 03:34:59;;;;;;;;;;;;;;;21.04;72.03;96700.59;624750;227;67311;-60
2023/06/14 03:37:26;;;;;;;;;;;;;;;21.02;72.01;96703.53;624798;227;65272;-60
2023/06/14 03:39:54;;;;;;;;;;;;;;;21.04;72.02;96700.59;624849;227;66896;-60
2023/06/14 03:42:23;;;;;;;;;;;;;;;21.03;72.02;96705.14;624795;227;64759;-60
2023/06/14 03:44:51;;;;;;;;;;;;;;;21.03;71.98;96699.80;624840;227;63681;-59
2023/06/14 03:47:20;;;;;;;;;;;;;;;21.03;72.00;96712.34;624761;227;67364;-59
2023/06/14 03:49:47;;;;;;;;;;;;;;;21.02;72.01;96710.75;624855;227;66786;-58
2023/06/14 03:52:16;;;;;;;;;;;;;;;21.03;72.01;96712.34;624824;227;62530;-60
2023/06/14 03:54:44;;;;;;;;;;;;;;;21.03;72.01;96712.34;624799;227;67562;-59
2023/06/14 03:57:12;;;;;;;;;;;;;;;21.02;72.00;96724.91;624837;227;66732;-60
2023/06/14 03:59:41;;;;;;;;;;;;;;;21.02;72.00;96719.56;624689;226;65953;-59
2023/06/14 04:02:15;;;;;;;;;;;;;;;21.03;72.03;96731.03;624826;227;66875;-59
2023/06/14 04:04:44;;;;;;;;;;;;;;;21.02;72.00;96724.91;624809;226;66298;-60
2023/06/14 04:07:12;;;;;;;;;;;;;;;21.03;72.00;96731.03;624416;226;63626;-59
2023/06/14 04:09:40;;;;;;;;;;;;;;;21.02;72.00;96730.25;624556;227;66917;-59
2023/06/14 04:12:14;;;;;;;;;;;;;;;21.02;71.98;96730.25;624791;227;65052;-59
2023/06/14 04:14:42;;;;;;;;;;;;;;;21.02;71.98;96732.91;624840;227;65825;-60
2023/06/14 04:17:12;;;;;;;;;;;;;;;21.02;71.99;96732.91;624746;226;67616;-59
2023/06/14 04:19:40;;;;;;;;;;;;;;;21.01;72.00;96728.66;621314;227;63394;-60
2023/06/14 04:22:10;;;;;;;;;;;;;;;21.02;71.96;96740.14;624793;227;65704;-60
2023/06/14 04:24:37;;;;;;;;;;;;;;;21.02;71.96;96740.14;624808;227;66901;-60
2023/06/14 04:27:06;;;;;;;;;;;;;;;21.02;71.97;96737.47;624777;227;63990;-60
2023/06/14 04:29:35;;;;;;;;;;;;;;;21.01;72.01;96739.34;624913;226;63521;-60
2023/06/14 04:32:05;;;;;;;;;;;;;;;21.01;71.99;96734.00;624838;226;44937;-60
2023/06/14 04:34:33;;;;;;;;;;;;;;;21.02;71.97;96756.17;624814;227;66487;-60
2023/06/14 04:37:02;;;;;;;;;;;;;;;21.01;72.00;96758.05;624827;227;63006;-61
2023/06/14 04:39:34;;;;;;;;;;;;;;;21.02;72.01;96756.17;624797;226;44064;-60
2023/06/14 04:42:03;;;;;;;;;;;;;;;21.01;72.00;96751.91;624841;227;66453;-60
2023/06/14 04:44:31;;;;;;;;;;;;;;;21.01;72.00;96760.72;624429;227;63069;-60
2023/06/14 04:47:00;;;;;;;;;;;;;;;21.00;72.00;96764.45;624849;226;43718;-60
2023/06/14 04:49:32;;;;;;;;;;;;;;;21.01;72.01;96763.39;624848;227;64447;-60
2023/06/14 04:52:01;;;;;;;;;;;;;;;21.01;72.03;96763.39;624733;227;62995;-60
2023/06/14 04:54:41;;;;;;;;;;;;;;;21.01;72.03;96767.94;624857;226;49118;-60
2023/06/14 04:57:13;;;;;;;;;;;;;;;21.00;72.02;96769.79;624707;227;65414;-60
2023/06/14 04:59:39;;;;;;;;;;;;;;;21.01;72.03;96765.27;624763;226;65807;-61
2023/06/14 05:02:08;;;;;;;;;;;;;;;21.01;72.06;96770.61;624627;226;67687;-60
2023/06/14 05:04:39;;;;;;;;;;;;;;;21.00;72.05;96775.13;624789;227;67686;-60
2023/06/14 05:07:06;;;;;;;;;;;;;;;20.99;72.06;96768.20;624781;226;65030;-60
2023/06/14 05:09:33;;;;;;;;;;;;;;;21.00;72.07;96769.79;624669;227;67472;-60
2023/06/14 05:12:01;;;;;;;;;;;;;;;21.00;72.07;96774.34;624769;227;66718;-60
2023/06/14 05:14:28;;;;;;;;;;;;;;;20.99;72.05;96772.76;625815;226;64867;-60
2023/06/14 05:16:57;;;;;;;;;;;;;;;21.00;72.09;96769.00;625918;226;67641;-60
2023/06/14 05:19:28;;;;;;;;;;;;;;;20.99;72.06;96775.42;625985;226;64418;-60
2023/06/14 05:21:56;;;;;;;;;;;;;;;21.00;72.09;96779.69;625965;226;63042;-60
2023/06/14 05:24:24;;;;;;;;;;;;;;;21.00;72.13;96779.69;625966;226;66891;-60
2023/06/14 05:26:51;;;;;;;;;;;;;;;20.99;72.14;96783.44;625920;226;64942;-59
2023/06/14 05:29:19;;;;;;;;;;;;;;;20.99;72.14;96784.23;625942;226;64994;-59
2023/06/14 05:31:46;;;;;;;;;;;;;;;21.00;72.16;96788.49;625925;226;66839;-59
2023/06/14 05:34:14;;;;;;;;;;;;;;;20.99;72.15;96792.25;625858;226;66863;-59
2023/06/14 05:36:41;;;;;;;;;;;;;;;21.00;72.19;96793.83;625989;226;64823;-60
2023/06/14 05:39:10;;;;;;;;;;;;;;;20.99;72.19;96788.78;625962;226;64613;-59
2023/06/14 05:41:37;;;;;;;;;;;;;;;20.99;72.21;96800.27;625953;226;66858;-59
2023/06/14 05:44:05;;;;;;;;;;;;;;;20.99;72.19;96797.59;625915;226;65038;-59
2023/06/14 05:46:32;;;;;;;;;;;;;;;20.99;72.21;96800.27;625928;226;66725;-59
2023/06/14 05:49:00;;;;;;;;;;;;;;;20.98;72.20;96796.01;625674;226;66731;-59
2023/06/14 05:51:27;;;;;;;;;;;;;;;20.98;72.21;96798.67;625822;226;65052;-59
2023/06/14 05:53:56;;;;;;;;;;;;;;;20.97;72.23;96794.39;625877;226;64482;-59
2023/06/14 05:56:26;;;;;;;;;;;;;;;20.98;72.23;96793.33;625969;225;47190;-60
2023/06/14 05:58:53;;;;;;;;;;;;;;;21.01;73.18;96800.00;625208;226;65127;-61
2023/06/14 06:01:21;;;;;;;;;;;;;;;21.01;72.24;96794.66;625933;226;65355;-59
2023/06/14 06:03:48;;;;;;;;;;;;;;;20.99;72.55;96794.92;625955;226;66847;-61
2023/06/14 06:06:17;;;;;;;;;;;;;;;20.98;72.83;96792.52;625788;226;65079;-59
2023/06/14 06:08:44;;;;;;;;;;;;;;;20.98;73.65;96798.67;625813;226;66950;-59
2023/06/14 06:11:11;;;;;;;;;;;;;;;20.94;72.16;96797.62;625887;226;64840;-60
2023/06/14 06:13:40;;;;;;;;;;;;;;;20.95;72.45;96801.91;624935;226;63794;-59
2023/06/14 06:16:07;;;;;;;;;;;;;;;20.96;72.44;96806.16;624377;227;66996;-59
2023/06/14 06:18:36;;;;;;;;;;;;;;;20.95;73.13;96799.23;624771;227;64711;-59
2023/06/14 06:21:05;;;;;;;;;;;;;;;20.96;73.04;96800.81;622686;227;65008;-59
2023/06/14 06:23:33;;;;;;;;;;;;;;;20.97;73.78;96799.73;617168;228;66863;-59
2023/06/14 06:26:00;;;;;;;;;;;;;;;20.96;72.90;96794.68;617162;229;66820;-59
2023/06/14 06:28:28;;;;;;;;;;;;;;;20.97;72.97;96798.94;617454;229;65087;-59
2023/06/14 06:30:56;;;;;;;;;;;;;;;20.96;72.26;96802.70;617659;229;66961;-58
2023/06/14 06:33:23;;;;;;;;;;;;;;;20.97;73.15;96805.08;617641;229;63950;-59
2023/06/14 06:35:51;;;;;;;;;;;;;;;20.97;72.30;96807.75;617650;229;63008;-59
2023/06/14 06:38:21;;;;;;;;;;;;;;;20.98;74.28;96808.54;617566;229;66885;-59
2023/06/14 06:40:49;;;;;;;;;;;;;;;20.97;75.27;96805.08;617583;229;67202;-60
2023/06/14 06:43:17;;;;;;;;;;;;;;;20.97;74.38;96806.95;617708;229;64979;-58
2023/06/14 06:45:46;;;;;;;;;;;;;;;20.96;72.21;96808.83;617590;228;45706;-60
2023/06/14 06:48:15;;;;;;;;;;;;;;;20.96;71.41;96806.16;617102;229;66847;-60
2023/06/14 06:50:43;;;;;;;;;;;;;;;20.97;71.28;96810.42;617523;229;65015;-61
2023/06/14 06:53:10;;;;;;;;;;;;;;;20.98;71.48;96805.87;617642;229;66878;-60
2023/06/14 06:55:38;;;;;;;;;;;;;;;20.97;71.28;96810.42;617661;229;66800;-60
2023/06/14 06:58:05;;;;;;;;;;;;;;;20.98;71.29;96806.69;617600;229;65035;-60
2023/06/14 07:00:33;;;;;;;;;;;;;;;20.98;71.15;96809.36;617662;229;66328;-60
2023/06/14 07:03:01;;;;;;;;;;;;;;;20.97;71.17;96807.75;617571;229;66808;-60
2023/06/14 07:05:28;;;;;;;;;;;;;;;20.98;70.97;96809.36;617534;229;65060;-60
2023/06/14 07:07:56;;;;;;;;;;;;;;;20.99;70.82;96808.28;617433;229;67142;-58
2023/06/14 07:10:24;;;;;;;;;;;;;;;20.98;70.46;96808.54;617555;229;66879;-61
2023/06/14 07:12:52;;;;;;;;;;;;;;;20.98;70.39;96811.21;617586;229;65137;-60
2023/06/14 07:15:19;;;;;;;;;;;;;;;20.98;70.56;96820.05;617659;229;66941;-61
2023/06/14 07:17:47;;;;;;;;;;;;;;;21.02;70.81;96821.08;617567;229;64728;-60
2023/06/14 07:20:15;;;;;;;;;;;;;;;21.01;70.75;96819.50;617666;229;62895;-61
2023/06/14 07:22:43;;;;;;;;;;;;;;;21.02;71.04;96825.63;617673;229;66808;-60
2023/06/14 07:25:19;;;;;;;;;;;;;;;21.01;71.03;96827.52;617578;229;66651;-60
2023/06/14 07:27:44;;;;;;;;;;;;;;;21.01;71.00;96827.52;617374;228;62981;-60
2023/06/14 07:30:12;;;;;;;;;;;;;;;21.02;71.00;96831.77;617490;229;64665;-60
2023/06/14 07:32:40;;;;;;;;;;;;;;;21.01;70.99;96832.85;617486;229;66976;-60
2023/06/14 07:35:07;;;;;;;;;;;;;;;21.01;71.00;96824.84;617391;229;62905;-61
2023/06/14 07:37:36;;;;;;;;;;;;;;;21.01;70.93;96827.52;617559;229;64795;-60
2023/06/14 07:40:06;;;;;;;;;;;;;;;21.01;70.96;96830.19;617647;229;64813;-61
2023/06/14 07:42:35;;;;;;;;;;;;;;;21.02;70.94;96826.42;617658;229;65184;-61
2023/06/14 07:45:03;;;;;;;;;;;;;;;21.01;71.80;96830.19;617545;229;64575;-58
2023/06/14 07:47:31;;;;;;;;;;;;;;;21.02;72.86;96826.42;617730;229;66520;-58
2023/06/14 07:49:58;;;;;;;;;;;;;;;21.01;71.68;96824.05;617635;229;65104;-61
2023/06/14 07:52:26;;;;;;;;;;;;;;;21.01;71.05;96822.17;617547;229;64731;-60
2023/06/14 07:54:53;;;;;;;;;;;;;;;21.02;70.99;96817.62;617618;229;64888;-60
2023/06/14 07:57:20;;;;;;;;;;;;;;;21.02;71.05;96820.29;617547;229;64839;-58
2023/06/14 07:59:48;;;;;;;;;;;;;;;21.01;71.12;96816.82;617226;229;64654;-58
2023/06/14 08:02:15;;;;;;;;;;;;;;;21.01;71.16;96816.82;617139;229;65131;-60
2023/06/14 08:04:43;;;;;;;;;;;;;;;21.01;70.96;96816.82;617347;229;62843;-60
2023/06/14 08:07:11;;;;;;;;;;;;;;;21.02;70.45;96822.95;617067;229;66772;-60
2023/06/14 08:09:39;;;;;;;;;;;;;;;21.01;70.30;96824.05;617681;229;65392;-60
2023/06/14 08:12:09;;;;;;;;;;;;;;;21.02;70.41;96829.09;617605;229;65034;-60
2023/06/14 08:14:37;;;;;;;;;;;;;;;21.02;70.41;96821.08;617662;229;66753;-58
2023/06/14 08:17:04;;;;;;;;;;;;;;;21.02;70.47;96829.09;617630;229;66826;-58
2023/06/14 08:19:32;;;;;;;;;;;;;;;21.02;70.43;96831.77;617454;229;65041;-58
2023/06/14 08:21:59;;;;;;;;;;;;;;;21.03;70.42;96835.23;617480;229;64982;-58
2023/06/14 08:24:27;;;;;;;;;;;;;;;21.02;70.41;96837.11;617450;229;65412;-58
2023/06/14 08:26:54;;;;;;;;;;;;;;;21.02;70.29;96834.44;617364;229;62943;-58
2023/06/14 08:29:22;;;;;;;;;;;;;;;21.02;70.37;96837.11;617656;229;66928;-58
2023/06/14 08:31:49;;;;;;;;;;;;;;;21.02;70.29;96839.78;617664;229;66889;-58
2023/06/14 08:34:17;;;;;;;;;;;;;;;21.03;70.27;96838.73;617600;229;65013;-58
2023/06/14 08:36:44;;;;;;;;;;;;;;;21.02;70.27;96845.13;617677;229;64439;-58
2023/06/14 08:39:13;;;;;;;;;;;;;;;21.02;70.19;96845.13;617709;229;66479;-58
2023/06/14 08:41:40;;;;;;;;;;;;;;;21.03;70.17;96844.07;617485;229;63027;-58
2023/06/14 08:44:08;;;;;;;;;;;;;;;21.02;70.21;96847.80;617619;229;64454;-58
2023/06/14 08:46:38;;;;;;;;;;;;;;;21.03;70.22;96854.76;617412;229;66468;-58
2023/06/14 08:49:09;;;;;;;;;;;;;;;21.03;70.22;96853.94;614168;229;62948;-58
2023/06/14 08:51:37;;;;;;;;;;;;;;;21.03;70.26;96852.09;616962;228;66460;-58
2023/06/14 08:54:05;;;;;;;;;;;;;;;21.03;70.25;96862.77;616947;229;66516;-59
2023/06/14 08:56:33;;;;;;;;;;;;;;;21.03;70.26;96864.62;617611;229;65004;-58
2023/06/14 08:59:02;;;;;;;;;;;;;;;21.03;70.48;96851.27;617145;229;64573;-58
2023/06/14 09:01:34;;;;;;;;;;;;;;;21.04;71.33;96852.88;616559;227;66609;-58
2023/06/14 09:04:02;;;;;;;;;;;;;;;21.02;70.38;96853.14;618263;227;66902;-60
2023/06/14 09:06:30;;;;;;;;;;;;;;;21.08;70.22;96845.90;617695;229;66854;-59
2023/06/14 09:08:57;;;;;;;;;;;;;;;21.20;70.67;96854.40;617649;229;67010;-59
2023/06/14 09:11:30;;;;;;;;;;;;;;;21.16;70.38;96850.66;617569;229;62982;-59
2023/06/14 09:13:55;;;;;;;;;;;;;;;21.15;71.66;96850.95;615766;228;64914;-59
2023/06/14 09:16:22;;;;;;;;;;;;;;;21.13;70.15;96847.75;615378;230;66809;-59
2023/06/14 09:18:50;;;;;;;;;;;;;;;21.12;70.97;96848.84;615273;230;64834;-59
2023/06/14 09:21:18;;;;;;;;;;;;;;;21.11;71.10;96844.55;615395;230;66878;-59
2023/06/14 09:23:46;;;;;;;;;;;;;;;21.10;71.23;96849.09;620322;228;66855;-59
2023/06/14 09:26:17;;;;;;;;;;;;;;;21.09;71.37;96847.52;622336;228;66185;-59
2023/06/14 09:28:46;;;;;;;;;;;;;;;21.09;71.39;96844.02;621243;228;66680;-60
2023/06/14 09:31:14;;;;;;;;;;;;;;;21.09;71.46;96846.69;622323;228;66793;-60
2023/06/14 09:33:49;;;;;;;;;;;;;;;21.08;71.50;96845.90;622308;228;65049;-60
2023/06/14 09:36:18;;;;;;;;;;;;;;;21.08;71.51;96845.11;622390;228;67279;-60
2023/06/14 09:38:56;;;;;;;;;;;;;;;21.08;71.58;96839.77;622233;228;65464;-58
2023/06/14 09:41:36;;;;;;;;;;;;;;;21.08;71.63;96835.21;622388;228;63100;-59
2023/06/14 09:44:06;;;;;;;;;;;;;;;21.07;71.68;96830.95;622485;228;66825;-59
2023/06/14 09:46:34;;;;;;;;;;;;;;;21.07;71.71;96833.62;621559;228;64915;-59
2023/06/14 09:49:02;;;;;;;;;;;;;;;21.06;71.70;96830.16;622788;228;64990;-59
2023/06/14 09:51:30;;;;;;;;;;;;;;;21.08;71.77;96834.42;622662;228;66937;-59
2023/06/14 09:54:04;;;;;;;;;;;;;;;21.07;71.76;96833.62;622053;228;64713;-58
2023/06/14 09:56:33;;;;;;;;;;;;;;;21.08;71.75;96837.88;622684;228;62488;-59
2023/06/14 09:59:00;;;;;;;;;;;;;;;21.08;71.76;96839.77;621878;228;70233;-59
2023/06/14 10:01:29;;;;;;;;;;;;;;;21.07;71.79;96841.64;621656;228;67875;-59
2023/06/14 10:03:58;;;;;;;;;;;;;;;21.08;71.85;96845.90;622173;228;65071;-58
2023/06/14 10:06:26;;;;;;;;;;;;;;;21.08;71.85;96839.77;622062;228;66832;-58
2023/06/14 10:08:56;;;;;;;;;;;;;;;21.08;71.85;96842.43;622278;228;66761;-59
2023/06/14 10:11:24;;;;;;;;;;;;;;;21.08;71.87;96834.42;622763;228;65478;-59
2023/06/14 10:13:51;;;;;;;;;;;;;;;21.09;71.85;96836.00;620076;226;64551;-58
2023/06/14 10:16:30;;;;;;;;;;;;;;;21.07;71.89;96836.30;614030;229;66484;-58
2023/06/14 10:19:16;;;;;;;;;;;;;;;21.08;71.85;96826.41;618911;226;65057;-58
2023/06/14 10:21:53;;;;;;;;;;;;;;;21.09;71.88;96822.64;618701;229;67249;-58
2023/06/14 10:24:21;;;;;;;;;;;;;;;21.08;71.91;96821.85;617798;228;64572;-58
2023/06/14 10:26:55;;;;;;;;;;;;;;;21.09;71.70;96819.97;618265;229;63037;-58
2023/06/14 10:29:23;;;;;;;;;;;;;;;21.09;72.20;96820.80;618713;229;66812;-58
2023/06/14 10:31:51;;;;;;;;;;;;;;;21.09;71.66;96819.97;618755;229;66832;-58
2023/06/14 10:34:23;;;;;;;;;;;;;;;21.07;71.96;96817.59;618723;229;65047;-59
2023/06/14 10:37:07;;;;;;;;;;;;;;;21.07;71.96;96812.25;618536;229;66569;-58
2023/06/14 10:39:36;;;;;;;;;;;;;;;21.06;71.92;96811.45;618753;229;66792;-58
2023/06/14 10:42:05;;;;;;;;;;;;;;;21.06;71.82;96816.80;618455;228;65121;-59
2023/06/14 10:44:33;;;;;;;;;;;;;;;21.07;71.76;96820.27;618750;227;66686;-59
2023/06/14 10:47:01;;;;;;;;;;;;;;;21.06;71.71;96808.78;618788;229;64710;-58
2023/06/14 10:49:31;;;;;;;;;;;;;;;21.06;71.69;96811.45;618717;229;62906;-58
2023/06/14 10:51:59;;;;;;;;;;;;;;;21.08;71.70;96810.38;618434;229;67233;-58
2023/06/14 10:54:28;;;;;;;;;;;;;;;21.08;71.65;96813.04;618706;229;64768;-58
2023/06/14 10:56:56;;;;;;;;;;;;;;;21.07;71.58;96806.91;618756;229;62989;-59
2023/06/14 10:59:24;;;;;;;;;;;;;;;21.07;71.58;96806.91;618658;229;66811;-58
2023/06/14 11:01:59;;;;;;;;;;;;;;;21.07;71.61;96809.58;618778;229;66643;-58
2023/06/14 11:04:45;;;;;;;;;;;;;;;21.08;71.64;96803.15;618730;229;65142;-58
2023/06/14 11:07:14;;;;;;;;;;;;;;;21.08;71.63;96803.15;618755;229;66895;-58
2023/06/14 11:10:00;;;;;;;;;;;;;;;21.08;71.65;96802.35;615248;228;66846;-58
2023/06/14 11:12:28;;;;;;;;;;;;;;;21.08;71.59;96802.35;618574;229;63204;-58
2023/06/14 11:14:56;;;;;;;;;;;;;;;21.08;71.51;96805.03;617686;229;66970;-59
2023/06/14 11:17:23;;;;;;;;;;;;;;;21.07;71.48;96798.89;617632;229;64668;-58
2023/06/14 11:19:51;;;;;;;;;;;;;;;21.07;71.47;96796.22;617609;229;63006;-58
2023/06/14 11:22:20;;;;;;;;;;;;;;;21.08;71.42;96802.35;617647;228;46844;-59
2023/06/14 11:24:48;;;;;;;;;;;;;;;21.08;71.42;96799.69;617660;229;66745;-58
2023/06/14 11:27:15;;;;;;;;;;;;;;;21.09;71.40;96809.28;617681;229;65021;-58
2023/06/14 11:29:50;;;;;;;;;;;;;;;21.08;71.40;96797.80;617676;229;66825;-59
2023/06/14 11:32:17;;;;;;;;;;;;;;;21.08;71.38;96803.15;617624;229;66532;-58
2023/06/14 11:34:47;;;;;;;;;;;;;;;21.08;71.31;96802.35;617637;229;65004;-59
2023/06/14 11:37:14;;;;;;;;;;;;;;;21.09;71.31;96798.59;617679;229;64704;-59
2023/06/14 11:39:44;;;;;;;;;;;;;;;21.09;71.31;96794.08;617644;229;67051;-59
2023/06/14 11:42:13;;;;;;;;;;;;;;;21.09;71.34;96793.25;617536;228;64955;-59
2023/06/14 11:44:41;;;;;;;;;;;;;;;21.09;71.30;96787.91;617439;228;66868;-59
2023/06/14 11:47:10;;;;;;;;;;;;;;;21.09;71.27;96790.58;617600;229;66816;-59
2023/06/14 11:49:37;;;;;;;;;;;;;;;21.09;71.30;96787.91;617611;229;64861;-59
2023/06/14 11:52:05;;;;;;;;;;;;;;;21.10;71.30;96794.87;617630;229;64272;-59
2023/06/14 11:54:33;;;;;;;;;;;;;;;21.10;71.33;96786.85;617630;229;64676;-58
2023/06/14 11:57:00;;;;;;;;;;;;;;;21.10;71.34;96784.18;617632;229;65037;-58
2023/06/14 11:59:28;;;;;;;;;;;;;;;21.09;71.39;96782.56;617619;229;64299;-57
2023/06/14 12:01:55;;;;;;;;;;;;;;;21.10;71.27;96776.16;617612;229;66935;-58
2023/06/14 12:04:28;;;;;;;;;;;;;;;21.09;71.28;96783.39;617574;229;63049;-59
2023/06/14 12:06:57;;;;;;;;;;;;;;;21.11;71.28;96785.77;617615;228;64808;-59
2023/06/14 12:09:26;;;;;;;;;;;;;;;21.10;71.33;96782.30;617574;227;66751;-59
2023/06/14 12:11:55;;;;;;;;;;;;;;;21.11;71.47;96785.77;617650;227;64826;-58
2023/06/14 12:14:25;;;;;;;;;;;;;;;21.11;71.24;96783.09;617455;228;65361;-58
2023/06/14 12:16:54;;;;;;;;;;;;;;;21.10;71.02;96779.63;617504;228;66834;-58
2023/06/14 12:19:23;;;;;;;;;;;;;;;21.11;70.96;96777.75;617430;228;65019;-58
2023/06/14 12:21:52;;;;;;;;;;;;;;;21.10;70.99;96766.27;617596;228;66853;-58
2023/06/14 12:24:20;;;;;;;;;;;;;;;21.11;70.98;96769.73;617588;229;66941;-58
2023/06/14 12:26:47;;;;;;;;;;;;;;;21.10;70.92;96766.27;617653;229;62892;-58
2023/06/14 12:29:15;;;;;;;;;;;;;;;21.12;70.92;96760.66;617586;229;66775;-58
2023/06/14 12:31:42;;;;;;;;;;;;;;;21.11;70.92;96759.05;617583;229;66805;-58
2023/06/14 12:34:10;;;;;;;;;;;;;;;21.11;70.89;96759.05;617642;229;64873;-58
2023/06/14 12:36:41;;;;;;;;;;;;;;;21.12;70.90;96757.98;617587;229;66855;-58
2023/06/14 12:39:08;;;;;;;;;;;;;;;21.12;70.92;96753.44;617579;227;66833;-58
2023/06/14 12:41:36;;;;;;;;;;;;;;;21.11;70.91;96749.16;617639;229;65032;-58
2023/06/14 12:44:07;;;;;;;;;;;;;;;21.11;70.91;96738.46;617554;229;64698;-58
2023/06/14 12:46:34;;;;;;;;;;;;;;;21.11;70.91;96743.02;617712;229;66390;-58
2023/06/14 12:49:03;;;;;;;;;;;;;;;21.11;70.87;96732.33;617545;229;65034;-58
2023/06/14 12:51:31;;;;;;;;;;;;;;;21.12;70.88;96731.27;617553;229;66772;-58
2023/06/14 12:53:58;;;;;;;;;;;;;;;21.12;70.80;96731.27;617620;229;64737;-58
2023/06/14 12:56:26;;;;;;;;;;;;;;;21.12;70.78;96731.27;617603;229;62930;-58